sensor_id;sensor_type;location;lat;lon;timestamp;P1;durP1;ratioP1;P2;durP2;ratioP2
34019;SDS011;20895;51.034;3.742;2022-08-19T00:01:36;37.20;;;32.65;;
34019;SDS011;20895;51.034;3.742;2022-08-19T00:04:03;37.83;;;31.65;;
34019;SDS011;20895;51.034;3.742;2022-08-19T00:06:29;35.03;;;30.73;;
34019;SDS011;20895;51.034;3.742;2022-08-19T00:08:55;40.47;;;33.50;;
34019;SDS011;20895;51.034;3.742;2022-08-19T00:11:20;39.58;;;33.92;;
34019;SDS011;20895;51.034;3.742;2022-08-19T00:13:45;39.65;;;33.10;;
34019;SDS011;20895;51.034;3.742;2022-08-19T00:16:13;38.65;;;32.78;;
34019;SDS011;20895;51.034;3.742;2022-08-19T00:18:38;35.97;;;31.73;;
34019;SDS011;20895;51.034;3.742;2022-08-19T00:21:03;36.13;;;32.10;;
34019;SDS011;20895;51.034;3.742;2022-08-19T00:23:33;38.30;;;33.13;;
34019;SDS011;20895;51.034;3.742;2022-08-19T00:26:01;36.30;;;32.00;;
34019;SDS011;20895;51.034;3.742;2022-08-19T00:28:26;37.50;;;30.85;;
34019;SDS011;20895;51.034;3.742;2022-08-19T00:30:51;35.50;;;30.13;;
34019;SDS011;20895;51.034;3.742;2022-08-19T00:33:18;33.50;;;29.70;;
34019;SDS011;20895;51.034;3.742;2022-08-19T00:35:43;37.47;;;31.60;;
34019;SDS011;20895;51.034;3.742;2022-08-19T00:38:08;35.97;;;30.67;;
34019;SDS011;20895;51.034;3.742;2022-08-19T00:40:33;37.92;;;30.52;;
34019;SDS011;20895;51.034;3.742;2022-08-19T00:42:59;37.60;;;32.05;;
34019;SDS011;20895;51.034;3.742;2022-08-19T00:45:25;35.58;;;31.88;;
34019;SDS011;20895;51.034;3.742;2022-08-19T00:47:51;34.72;;;30.92;;
34019;SDS011;20895;51.034;3.742;2022-08-19T00:50:18;36.05;;;30.40;;
34019;SDS011;20895;51.034;3.742;2022-08-19T00:52:45;31.77;;;27.98;;
34019;SDS011;20895;51.034;3.742;2022-08-19T00:55:16;29.88;;;26.40;;
34019;SDS011;20895;51.034;3.742;2022-08-19T00:57:44;32.37;;;27.00;;
34019;SDS011;20895;51.034;3.742;2022-08-19T01:00:12;30.63;;;25.10;;
34019;SDS011;20895;51.034;3.742;2022-08-19T01:02:39;29.88;;;25.23;;
34019;SDS011;20895;51.034;3.742;2022-08-19T01:05:06;26.25;;;23.48;;
34019;SDS011;20895;51.034;3.742;2022-08-19T01:07:33;34.38;;;25.50;;
34019;SDS011;20895;51.034;3.742;2022-08-19T01:09:59;35.60;;;24.75;;
34019;SDS011;20895;51.034;3.742;2022-08-19T01:12:25;29.55;;;23.92;;
34019;SDS011;20895;51.034;3.742;2022-08-19T01:14:50;25.92;;;23.15;;
34019;SDS011;20895;51.034;3.742;2022-08-19T01:17:16;28.02;;;23.63;;
34019;SDS011;20895;51.034;3.742;2022-08-19T01:19:42;29.55;;;23.35;;
34019;SDS011;20895;51.034;3.742;2022-08-19T01:24:48;25.83;;;22.15;;
34019;SDS011;20895;51.034;3.742;2022-08-19T01:27:13;24.40;;;21.45;;
34019;SDS011;20895;51.034;3.742;2022-08-19T01:29:39;27.42;;;23.17;;
34019;SDS011;20895;51.034;3.742;2022-08-19T01:32:06;28.20;;;23.35;;
34019;SDS011;20895;51.034;3.742;2022-08-19T01:34:32;29.25;;;21.98;;
34019;SDS011;20895;51.034;3.742;2022-08-19T01:36:58;26.38;;;21.83;;
34019;SDS011;20895;51.034;3.742;2022-08-19T01:39:24;24.52;;;21.30;;
34019;SDS011;20895;51.034;3.742;2022-08-19T01:41:50;25.73;;;21.17;;
34019;SDS011;20895;51.034;3.742;2022-08-19T01:44:17;25.13;;;20.90;;
34019;SDS011;20895;51.034;3.742;2022-08-19T01:46:46;27.13;;;20.83;;
34019;SDS011;20895;51.034;3.742;2022-08-19T01:49:12;23.23;;;19.17;;
34019;SDS011;20895;51.034;3.742;2022-08-19T01:51:37;25.13;;;20.95;;
34019;SDS011;20895;51.034;3.742;2022-08-19T01:54:02;26.15;;;20.23;;
34019;SDS011;20895;51.034;3.742;2022-08-19T01:56:28;26.48;;;21.65;;
34019;SDS011;20895;51.034;3.742;2022-08-19T01:58:54;31.27;;;20.58;;
34019;SDS011;20895;51.034;3.742;2022-08-19T02:01:20;24.15;;;19.92;;
34019;SDS011;20895;51.034;3.742;2022-08-19T02:03:45;26.42;;;19.92;;
34019;SDS011;20895;51.034;3.742;2022-08-19T02:06:10;25.05;;;20.05;;
34019;SDS011;20895;51.034;3.742;2022-08-19T02:08:37;26.27;;;20.23;;
34019;SDS011;20895;51.034;3.742;2022-08-19T02:11:02;24.88;;;19.92;;
34019;SDS011;20895;51.034;3.742;2022-08-19T02:13:28;25.35;;;19.50;;
34019;SDS011;20895;51.034;3.742;2022-08-19T02:15:53;25.90;;;19.67;;
34019;SDS011;20895;51.034;3.742;2022-08-19T02:18:18;27.92;;;19.88;;
34019;SDS011;20895;51.034;3.742;2022-08-19T02:20:44;22.08;;;19.58;;
34019;SDS011;20895;51.034;3.742;2022-08-19T02:23:10;26.77;;;20.10;;
34019;SDS011;20895;51.034;3.742;2022-08-19T02:25:36;25.17;;;19.23;;
34019;SDS011;20895;51.034;3.742;2022-08-19T02:28:01;25.95;;;19.98;;
34019;SDS011;20895;51.034;3.742;2022-08-19T02:30:26;26.98;;;21.23;;
34019;SDS011;20895;51.034;3.742;2022-08-19T02:32:52;24.33;;;19.42;;
34019;SDS011;20895;51.034;3.742;2022-08-19T02:35:18;29.52;;;20.35;;
34019;SDS011;20895;51.034;3.742;2022-08-19T02:37:43;28.77;;;21.60;;
34019;SDS011;20895;51.034;3.742;2022-08-19T02:40:28;28.75;;;21.55;;
34019;SDS011;20895;51.034;3.742;2022-08-19T02:42:53;27.38;;;22.13;;
34019;SDS011;20895;51.034;3.742;2022-08-19T02:45:19;31.52;;;23.27;;
34019;SDS011;20895;51.034;3.742;2022-08-19T02:47:44;37.05;;;23.27;;
34019;SDS011;20895;51.034;3.742;2022-08-19T02:50:09;28.08;;;21.48;;
34019;SDS011;20895;51.034;3.742;2022-08-19T02:52:34;26.30;;;20.85;;
34019;SDS011;20895;51.034;3.742;2022-08-19T02:55:00;28.70;;;20.70;;
34019;SDS011;20895;51.034;3.742;2022-08-19T02:57:25;26.60;;;21.30;;
34019;SDS011;20895;51.034;3.742;2022-08-19T02:59:51;26.77;;;21.10;;
34019;SDS011;20895;51.034;3.742;2022-08-19T03:02:17;28.15;;;23.35;;
34019;SDS011;20895;51.034;3.742;2022-08-19T03:04:42;25.20;;;20.98;;
34019;SDS011;20895;51.034;3.742;2022-08-19T03:07:07;22.92;;;20.27;;
34019;SDS011;20895;51.034;3.742;2022-08-19T03:09:33;26.33;;;19.38;;
34019;SDS011;20895;51.034;3.742;2022-08-19T03:11:58;26.67;;;19.85;;
34019;SDS011;20895;51.034;3.742;2022-08-19T03:14:23;23.73;;;20.08;;
34019;SDS011;20895;51.034;3.742;2022-08-19T03:16:49;24.00;;;18.55;;
34019;SDS011;20895;51.034;3.742;2022-08-19T03:19:16;23.88;;;16.48;;
34019;SDS011;20895;51.034;3.742;2022-08-19T03:21:42;26.00;;;17.83;;
34019;SDS011;20895;51.034;3.742;2022-08-19T03:24:10;21.58;;;17.00;;
34019;SDS011;20895;51.034;3.742;2022-08-19T03:26:38;24.35;;;18.45;;
34019;SDS011;20895;51.034;3.742;2022-08-19T03:29:04;23.65;;;18.98;;
34019;SDS011;20895;51.034;3.742;2022-08-19T03:31:29;21.65;;;17.05;;
34019;SDS011;20895;51.034;3.742;2022-08-19T03:33:56;24.70;;;18.27;;
34019;SDS011;20895;51.034;3.742;2022-08-19T03:36:22;19.33;;;16.65;;
34019;SDS011;20895;51.034;3.742;2022-08-19T03:38:52;21.63;;;16.27;;
34019;SDS011;20895;51.034;3.742;2022-08-19T03:41:30;24.58;;;17.10;;
34019;SDS011;20895;51.034;3.742;2022-08-19T03:43:56;24.05;;;16.60;;
34019;SDS011;20895;51.034;3.742;2022-08-19T03:46:23;22.48;;;15.63;;
34019;SDS011;20895;51.034;3.742;2022-08-19T03:48:50;23.67;;;15.63;;
34019;SDS011;20895;51.034;3.742;2022-08-19T03:51:28;23.92;;;16.67;;
34019;SDS011;20895;51.034;3.742;2022-08-19T03:53:55;20.08;;;17.70;;
34019;SDS011;20895;51.034;3.742;2022-08-19T03:56:21;18.80;;;14.75;;
34019;SDS011;20895;51.034;3.742;2022-08-19T03:58:47;19.60;;;13.88;;
34019;SDS011;20895;51.034;3.742;2022-08-19T04:01:14;20.60;;;15.52;;
34019;SDS011;20895;51.034;3.742;2022-08-19T04:03:40;22.65;;;16.33;;
34019;SDS011;20895;51.034;3.742;2022-08-19T04:06:11;21.30;;;14.85;;
34019;SDS011;20895;51.034;3.742;2022-08-19T04:08:37;20.40;;;14.52;;
34019;SDS011;20895;51.034;3.742;2022-08-19T04:11:06;17.88;;;13.95;;
34019;SDS011;20895;51.034;3.742;2022-08-19T04:13:32;18.33;;;15.48;;
34019;SDS011;20895;51.034;3.742;2022-08-19T04:15:57;20.00;;;14.70;;
34019;SDS011;20895;51.034;3.742;2022-08-19T04:18:22;23.48;;;14.27;;
34019;SDS011;20895;51.034;3.742;2022-08-19T04:20:48;19.15;;;14.73;;
34019;SDS011;20895;51.034;3.742;2022-08-19T04:23:14;24.83;;;16.38;;
34019;SDS011;20895;51.034;3.742;2022-08-19T04:25:41;20.98;;;14.27;;
34019;SDS011;20895;51.034;3.742;2022-08-19T04:28:07;26.42;;;14.50;;
34019;SDS011;20895;51.034;3.742;2022-08-19T04:30:41;20.08;;;15.40;;
34019;SDS011;20895;51.034;3.742;2022-08-19T04:33:07;19.60;;;14.05;;
34019;SDS011;20895;51.034;3.742;2022-08-19T04:35:40;20.95;;;14.07;;
34019;SDS011;20895;51.034;3.742;2022-08-19T04:38:06;17.17;;;14.63;;
34019;SDS011;20895;51.034;3.742;2022-08-19T04:40:31;21.48;;;15.50;;
34019;SDS011;20895;51.034;3.742;2022-08-19T04:43:15;22.88;;;14.35;;
34019;SDS011;20895;51.034;3.742;2022-08-19T04:45:44;18.30;;;14.35;;
34019;SDS011;20895;51.034;3.742;2022-08-19T04:48:10;17.33;;;13.55;;
34019;SDS011;20895;51.034;3.742;2022-08-19T04:50:36;22.13;;;14.68;;
34019;SDS011;20895;51.034;3.742;2022-08-19T04:53:01;15.77;;;13.00;;
34019;SDS011;20895;51.034;3.742;2022-08-19T04:55:26;18.35;;;13.13;;
34019;SDS011;20895;51.034;3.742;2022-08-19T04:57:52;19.42;;;13.68;;
34019;SDS011;20895;51.034;3.742;2022-08-19T05:00:17;18.38;;;13.02;;
34019;SDS011;20895;51.034;3.742;2022-08-19T05:02:42;21.85;;;13.63;;
34019;SDS011;20895;51.034;3.742;2022-08-19T05:05:08;21.48;;;14.18;;
34019;SDS011;20895;51.034;3.742;2022-08-19T05:07:33;22.08;;;13.77;;
34019;SDS011;20895;51.034;3.742;2022-08-19T05:09:59;19.85;;;12.82;;
34019;SDS011;20895;51.034;3.742;2022-08-19T05:12:24;16.45;;;12.35;;
34019;SDS011;20895;51.034;3.742;2022-08-19T05:14:50;18.85;;;13.65;;
34019;SDS011;20895;51.034;3.742;2022-08-19T05:17:16;25.00;;;12.82;;
34019;SDS011;20895;51.034;3.742;2022-08-19T05:19:42;18.10;;;12.70;;
34019;SDS011;20895;51.034;3.742;2022-08-19T05:22:25;20.50;;;13.32;;
34019;SDS011;20895;51.034;3.742;2022-08-19T05:24:58;23.95;;;13.60;;
34019;SDS011;20895;51.034;3.742;2022-08-19T05:27:23;19.83;;;13.95;;
34019;SDS011;20895;51.034;3.742;2022-08-19T05:29:48;21.83;;;12.63;;
34019;SDS011;20895;51.034;3.742;2022-08-19T05:32:13;17.20;;;11.70;;
34019;SDS011;20895;51.034;3.742;2022-08-19T05:34:39;20.00;;;12.77;;
34019;SDS011;20895;51.034;3.742;2022-08-19T05:37:04;19.73;;;12.15;;
34019;SDS011;20895;51.034;3.742;2022-08-19T05:39:30;19.40;;;11.65;;
34019;SDS011;20895;51.034;3.742;2022-08-19T05:41:58;15.95;;;11.05;;
34019;SDS011;20895;51.034;3.742;2022-08-19T05:44:24;16.98;;;11.13;;
34019;SDS011;20895;51.034;3.742;2022-08-19T05:46:50;19.02;;;12.88;;
34019;SDS011;20895;51.034;3.742;2022-08-19T05:49:18;21.40;;;13.32;;
34019;SDS011;20895;51.034;3.742;2022-08-19T05:51:43;18.95;;;12.80;;
34019;SDS011;20895;51.034;3.742;2022-08-19T05:54:09;16.38;;;11.75;;
34019;SDS011;20895;51.034;3.742;2022-08-19T05:56:36;20.27;;;11.65;;
34019;SDS011;20895;51.034;3.742;2022-08-19T05:59:03;18.98;;;11.98;;
34019;SDS011;20895;51.034;3.742;2022-08-19T06:01:29;18.63;;;12.00;;
34019;SDS011;20895;51.034;3.742;2022-08-19T06:03:54;19.05;;;11.93;;
34019;SDS011;20895;51.034;3.742;2022-08-19T06:06:20;14.98;;;11.15;;
34019;SDS011;20895;51.034;3.742;2022-08-19T06:08:45;19.10;;;13.15;;
34019;SDS011;20895;51.034;3.742;2022-08-19T06:13:44;15.02;;;11.02;;
34019;SDS011;20895;51.034;3.742;2022-08-19T06:16:15;16.75;;;11.18;;
34019;SDS011;20895;51.034;3.742;2022-08-19T06:18:56;18.48;;;11.23;;
34019;SDS011;20895;51.034;3.742;2022-08-19T06:21:22;16.27;;;10.25;;
34019;SDS011;20895;51.034;3.742;2022-08-19T06:23:48;18.30;;;10.90;;
34019;SDS011;20895;51.034;3.742;2022-08-19T06:26:16;18.35;;;10.88;;
34019;SDS011;20895;51.034;3.742;2022-08-19T06:28:42;19.00;;;11.45;;
34019;SDS011;20895;51.034;3.742;2022-08-19T06:31:11;16.15;;;10.65;;
34019;SDS011;20895;51.034;3.742;2022-08-19T06:33:38;19.05;;;11.23;;
34019;SDS011;20895;51.034;3.742;2022-08-19T06:36:04;17.48;;;11.73;;
34019;SDS011;20895;51.034;3.742;2022-08-19T06:38:29;15.07;;;10.20;;
34019;SDS011;20895;51.034;3.742;2022-08-19T06:41:01;17.65;;;11.77;;
34019;SDS011;20895;51.034;3.742;2022-08-19T06:43:26;13.50;;;9.83;;
34019;SDS011;20895;51.034;3.742;2022-08-19T06:45:52;13.60;;;10.25;;
34019;SDS011;20895;51.034;3.742;2022-08-19T06:48:17;13.52;;;9.82;;
34019;SDS011;20895;51.034;3.742;2022-08-19T06:50:43;17.23;;;9.93;;
34019;SDS011;20895;51.034;3.742;2022-08-19T06:53:08;13.93;;;9.65;;
34019;SDS011;20895;51.034;3.742;2022-08-19T06:55:33;12.65;;;9.85;;
34019;SDS011;20895;51.034;3.742;2022-08-19T06:58:01;11.57;;;8.88;;
34019;SDS011;20895;51.034;3.742;2022-08-19T07:00:27;16.13;;;9.57;;
34019;SDS011;20895;51.034;3.742;2022-08-19T07:02:52;14.20;;;10.10;;
34019;SDS011;20895;51.034;3.742;2022-08-19T07:05:18;13.48;;;9.45;;
34019;SDS011;20895;51.034;3.742;2022-08-19T07:07:43;17.88;;;9.93;;
34019;SDS011;20895;51.034;3.742;2022-08-19T07:10:08;11.98;;;8.43;;
34019;SDS011;20895;51.034;3.742;2022-08-19T07:12:34;10.98;;;8.95;;
34019;SDS011;20895;51.034;3.742;2022-08-19T07:15:00;14.18;;;9.43;;
34019;SDS011;20895;51.034;3.742;2022-08-19T07:17:25;11.60;;;8.63;;
34019;SDS011;20895;51.034;3.742;2022-08-19T07:19:51;10.85;;;8.43;;
34019;SDS011;20895;51.034;3.742;2022-08-19T07:22:16;11.65;;;9.70;;
34019;SDS011;20895;51.034;3.742;2022-08-19T07:24:42;11.20;;;7.95;;
34019;SDS011;20895;51.034;3.742;2022-08-19T07:27:08;10.05;;;8.70;;
34019;SDS011;20895;51.034;3.742;2022-08-19T07:29:35;12.80;;;10.05;;
34019;SDS011;20895;51.034;3.742;2022-08-19T07:32:01;9.75;;;8.50;;
34019;SDS011;20895;51.034;3.742;2022-08-19T07:34:28;10.77;;;8.15;;
34019;SDS011;20895;51.034;3.742;2022-08-19T07:36:54;12.30;;;8.95;;
34019;SDS011;20895;51.034;3.742;2022-08-19T07:39:24;13.52;;;8.98;;
34019;SDS011;20895;51.034;3.742;2022-08-19T07:41:50;11.95;;;8.10;;
34019;SDS011;20895;51.034;3.742;2022-08-19T07:44:16;13.02;;;9.20;;
34019;SDS011;20895;51.034;3.742;2022-08-19T07:46:43;14.63;;;8.02;;
34019;SDS011;20895;51.034;3.742;2022-08-19T07:49:09;11.60;;;8.50;;
34019;SDS011;20895;51.034;3.742;2022-08-19T07:51:39;9.90;;;7.68;;
34019;SDS011;20895;51.034;3.742;2022-08-19T07:54:05;14.68;;;8.00;;
34019;SDS011;20895;51.034;3.742;2022-08-19T07:56:30;13.25;;;9.02;;
34019;SDS011;20895;51.034;3.742;2022-08-19T07:58:56;9.98;;;7.93;;
34019;SDS011;20895;51.034;3.742;2022-08-19T08:01:23;13.50;;;7.75;;
34019;SDS011;20895;51.034;3.742;2022-08-19T08:03:50;15.85;;;8.48;;
34019;SDS011;20895;51.034;3.742;2022-08-19T08:06:34;12.93;;;8.25;;
34019;SDS011;20895;51.034;3.742;2022-08-19T08:09:21;14.00;;;8.30;;
34019;SDS011;20895;51.034;3.742;2022-08-19T08:11:54;13.90;;;8.77;;
34019;SDS011;20895;51.034;3.742;2022-08-19T08:14:22;11.95;;;9.00;;
34019;SDS011;20895;51.034;3.742;2022-08-19T08:16:48;11.52;;;7.13;;
34019;SDS011;20895;51.034;3.742;2022-08-19T08:19:16;12.30;;;8.10;;
34019;SDS011;20895;51.034;3.742;2022-08-19T08:21:41;13.13;;;9.70;;
34019;SDS011;20895;51.034;3.742;2022-08-19T08:24:07;13.57;;;8.75;;
34019;SDS011;20895;51.034;3.742;2022-08-19T08:26:32;12.88;;;8.40;;
34019;SDS011;20895;51.034;3.742;2022-08-19T08:28:58;12.63;;;8.70;;
34019;SDS011;20895;51.034;3.742;2022-08-19T08:31:23;13.50;;;8.55;;
34019;SDS011;20895;51.034;3.742;2022-08-19T08:33:48;10.32;;;8.23;;
34019;SDS011;20895;51.034;3.742;2022-08-19T08:36:14;11.80;;;9.48;;
34019;SDS011;20895;51.034;3.742;2022-08-19T08:38:40;13.60;;;8.18;;
34019;SDS011;20895;51.034;3.742;2022-08-19T08:41:09;13.93;;;9.73;;
34019;SDS011;20895;51.034;3.742;2022-08-19T08:43:44;12.57;;;8.50;;
34019;SDS011;20895;51.034;3.742;2022-08-19T08:46:12;11.50;;;8.90;;
34019;SDS011;20895;51.034;3.742;2022-08-19T08:48:39;12.90;;;8.60;;
34019;SDS011;20895;51.034;3.742;2022-08-19T08:51:10;11.38;;;7.90;;
34019;SDS011;20895;51.034;3.742;2022-08-19T08:53:36;14.63;;;8.40;;
34019;SDS011;20895;51.034;3.742;2022-08-19T08:56:03;18.60;;;11.38;;
34019;SDS011;20895;51.034;3.742;2022-08-19T08:58:36;13.18;;;8.65;;
34019;SDS011;20895;51.034;3.742;2022-08-19T09:01:08;13.50;;;9.15;;
34019;SDS011;20895;51.034;3.742;2022-08-19T09:03:33;17.08;;;9.55;;
34019;SDS011;20895;51.034;3.742;2022-08-19T09:10:51;10.70;;;7.63;;
34019;SDS011;20895;51.034;3.742;2022-08-19T09:15:56;9.85;;;6.68;;
34019;SDS011;20895;51.034;3.742;2022-08-19T09:18:24;9.27;;;6.82;;
34019;SDS011;20895;51.034;3.742;2022-08-19T09:20:49;13.40;;;7.13;;
34019;SDS011;20895;51.034;3.742;2022-08-19T09:23:14;9.45;;;5.10;;
34019;SDS011;20895;51.034;3.742;2022-08-19T09:25:40;7.30;;;6.03;;
34019;SDS011;20895;51.034;3.742;2022-08-19T09:28:05;8.40;;;6.47;;
34019;SDS011;20895;51.034;3.742;2022-08-19T09:30:32;7.57;;;6.70;;
34019;SDS011;20895;51.034;3.742;2022-08-19T09:32:58;6.70;;;5.30;;
34019;SDS011;20895;51.034;3.742;2022-08-19T09:35:24;10.73;;;6.25;;
34019;SDS011;20895;51.034;3.742;2022-08-19T09:37:51;8.05;;;5.95;;
34019;SDS011;20895;51.034;3.742;2022-08-19T09:40:16;5.80;;;4.35;;
34019;SDS011;20895;51.034;3.742;2022-08-19T09:42:43;5.55;;;4.35;;
34019;SDS011;20895;51.034;3.742;2022-08-19T09:45:08;5.30;;;4.22;;
34019;SDS011;20895;51.034;3.742;2022-08-19T09:47:34;4.88;;;4.07;;
34019;SDS011;20895;51.034;3.742;2022-08-19T09:50:03;4.97;;;4.47;;
34019;SDS011;20895;51.034;3.742;2022-08-19T09:52:28;5.18;;;3.80;;
34019;SDS011;20895;51.034;3.742;2022-08-19T09:54:53;5.82;;;4.32;;
34019;SDS011;20895;51.034;3.742;2022-08-19T09:57:19;9.25;;;3.35;;
34019;SDS011;20895;51.034;3.742;2022-08-19T09:59:44;5.65;;;4.30;;
34019;SDS011;20895;51.034;3.742;2022-08-19T10:02:10;5.18;;;4.30;;
34019;SDS011;20895;51.034;3.742;2022-08-19T10:04:35;6.32;;;4.15;;
34019;SDS011;20895;51.034;3.742;2022-08-19T10:07:19;7.65;;;4.95;;
34019;SDS011;20895;51.034;3.742;2022-08-19T10:09:44;11.02;;;5.80;;
34019;SDS011;20895;51.034;3.742;2022-08-19T10:12:10;5.35;;;4.82;;
34019;SDS011;20895;51.034;3.742;2022-08-19T10:14:35;6.10;;;4.85;;
34019;SDS011;20895;51.034;3.742;2022-08-19T10:17:01;5.25;;;4.05;;
34019;SDS011;20895;51.034;3.742;2022-08-19T10:19:27;6.30;;;4.18;;
34019;SDS011;20895;51.034;3.742;2022-08-19T10:21:55;6.38;;;3.88;;
34019;SDS011;20895;51.034;3.742;2022-08-19T10:24:20;4.63;;;3.40;;
34019;SDS011;20895;51.034;3.742;2022-08-19T10:26:49;4.78;;;3.67;;
34019;SDS011;20895;51.034;3.742;2022-08-19T10:29:14;6.43;;;3.47;;
34019;SDS011;20895;51.034;3.742;2022-08-19T10:31:41;7.70;;;3.88;;
34019;SDS011;20895;51.034;3.742;2022-08-19T10:34:06;5.10;;;4.53;;
34019;SDS011;20895;51.034;3.742;2022-08-19T10:36:33;6.17;;;3.60;;
34019;SDS011;20895;51.034;3.742;2022-08-19T10:39:01;5.15;;;3.50;;
34019;SDS011;20895;51.034;3.742;2022-08-19T10:41:29;9.68;;;4.07;;
34019;SDS011;20895;51.034;3.742;2022-08-19T10:43:56;5.03;;;4.50;;
34019;SDS011;20895;51.034;3.742;2022-08-19T10:46:23;5.72;;;4.32;;
34019;SDS011;20895;51.034;3.742;2022-08-19T10:48:48;4.50;;;3.70;;
34019;SDS011;20895;51.034;3.742;2022-08-19T10:51:14;5.75;;;3.28;;
34019;SDS011;20895;51.034;3.742;2022-08-19T10:53:58;4.88;;;3.58;;
34019;SDS011;20895;51.034;3.742;2022-08-19T10:56:24;4.88;;;2.88;;
34019;SDS011;20895;51.034;3.742;2022-08-19T10:59:08;8.38;;;4.00;;
34019;SDS011;20895;51.034;3.742;2022-08-19T11:01:33;6.70;;;3.25;;
34019;SDS011;20895;51.034;3.742;2022-08-19T11:04:02;6.45;;;3.15;;
34019;SDS011;20895;51.034;3.742;2022-08-19T11:06:28;7.13;;;3.10;;
34019;SDS011;20895;51.034;3.742;2022-08-19T11:08:54;8.73;;;3.58;;
34019;SDS011;20895;51.034;3.742;2022-08-19T11:11:20;5.22;;;3.20;;
34019;SDS011;20895;51.034;3.742;2022-08-19T11:13:46;7.18;;;3.80;;
34019;SDS011;20895;51.034;3.742;2022-08-19T11:16:13;8.77;;;3.58;;
34019;SDS011;20895;51.034;3.742;2022-08-19T11:18:41;8.18;;;2.58;;
34019;SDS011;20895;51.034;3.742;2022-08-19T11:21:12;4.13;;;2.63;;
34019;SDS011;20895;51.034;3.742;2022-08-19T11:23:38;4.45;;;2.58;;
34019;SDS011;20895;51.034;3.742;2022-08-19T11:26:04;4.78;;;3.08;;
34019;SDS011;20895;51.034;3.742;2022-08-19T11:28:29;6.93;;;2.08;;
34019;SDS011;20895;51.034;3.742;2022-08-19T11:30:55;3.00;;;1.75;;
34019;SDS011;20895;51.034;3.742;2022-08-19T11:33:20;4.28;;;2.05;;
34019;SDS011;20895;51.034;3.742;2022-08-19T11:35:45;4.95;;;1.70;;
34019;SDS011;20895;51.034;3.742;2022-08-19T11:38:10;5.95;;;1.80;;
34019;SDS011;20895;51.034;3.742;2022-08-19T11:40:36;3.17;;;1.73;;
34019;SDS011;20895;51.034;3.742;2022-08-19T11:43:02;7.13;;;1.75;;
34019;SDS011;20895;51.034;3.742;2022-08-19T11:45:27;3.72;;;1.80;;
34019;SDS011;20895;51.034;3.742;2022-08-19T11:47:53;1.50;;;1.30;;
34019;SDS011;20895;51.034;3.742;2022-08-19T11:50:19;7.53;;;1.50;;
34019;SDS011;20895;51.034;3.742;2022-08-19T11:52:45;2.88;;;1.35;;
34019;SDS011;20895;51.034;3.742;2022-08-19T11:55:11;5.65;;;1.95;;
34019;SDS011;20895;51.034;3.742;2022-08-19T11:57:36;5.40;;;1.50;;
34019;SDS011;20895;51.034;3.742;2022-08-19T12:00:03;3.47;;;1.08;;
34019;SDS011;20895;51.034;3.742;2022-08-19T12:02:29;2.78;;;1.27;;
34019;SDS011;20895;51.034;3.742;2022-08-19T12:04:54;4.82;;;1.08;;
34019;SDS011;20895;51.034;3.742;2022-08-19T12:07:20;2.15;;;1.20;;
34019;SDS011;20895;51.034;3.742;2022-08-19T12:09:45;1.75;;;1.05;;
34019;SDS011;20895;51.034;3.742;2022-08-19T12:12:11;2.60;;;1.23;;
34019;SDS011;20895;51.034;3.742;2022-08-19T12:14:36;3.63;;;1.27;;
34019;SDS011;20895;51.034;3.742;2022-08-19T12:17:01;3.35;;;2.03;;
34019;SDS011;20895;51.034;3.742;2022-08-19T12:19:29;3.72;;;1.50;;
34019;SDS011;20895;51.034;3.742;2022-08-19T12:21:57;3.50;;;2.13;;
34019;SDS011;20895;51.034;3.742;2022-08-19T12:24:24;7.28;;;4.30;;
34019;SDS011;20895;51.034;3.742;2022-08-19T12:26:50;4.35;;;2.30;;
34019;SDS011;20895;51.034;3.742;2022-08-19T12:29:16;8.63;;;1.70;;
34019;SDS011;20895;51.034;3.742;2022-08-19T12:31:41;2.90;;;1.40;;
34019;SDS011;20895;51.034;3.742;2022-08-19T12:34:06;3.53;;;1.23;;
34019;SDS011;20895;51.034;3.742;2022-08-19T12:36:32;4.43;;;1.67;;
34019;SDS011;20895;51.034;3.742;2022-08-19T12:38:58;3.05;;;1.38;;
34019;SDS011;20895;51.034;3.742;2022-08-19T12:41:24;6.03;;;2.33;;
34019;SDS011;20895;51.034;3.742;2022-08-19T12:43:50;3.67;;;1.60;;
34019;SDS011;20895;51.034;3.742;2022-08-19T12:46:15;2.70;;;1.60;;
34019;SDS011;20895;51.034;3.742;2022-08-19T12:48:40;5.72;;;2.35;;
34019;SDS011;20895;51.034;3.742;2022-08-19T12:51:10;10.98;;;2.78;;
34019;SDS011;20895;51.034;3.742;2022-08-19T12:53:36;5.70;;;2.92;;
34019;SDS011;20895;51.034;3.742;2022-08-19T12:56:01;5.53;;;2.10;;
34019;SDS011;20895;51.034;3.742;2022-08-19T12:58:27;4.03;;;2.40;;
34019;SDS011;20895;51.034;3.742;2022-08-19T13:00:53;3.55;;;2.30;;
34019;SDS011;20895;51.034;3.742;2022-08-19T13:03:18;20.17;;;3.70;;
34019;SDS011;20895;51.034;3.742;2022-08-19T13:05:43;3.67;;;1.80;;
34019;SDS011;20895;51.034;3.742;2022-08-19T13:08:09;2.75;;;1.85;;
34019;SDS011;20895;51.034;3.742;2022-08-19T13:10:35;4.03;;;1.80;;
34019;SDS011;20895;51.034;3.742;2022-08-19T13:13:01;5.00;;;2.38;;
34019;SDS011;20895;51.034;3.742;2022-08-19T13:15:27;3.65;;;1.70;;
34019;SDS011;20895;51.034;3.742;2022-08-19T13:17:57;4.13;;;2.13;;
34019;SDS011;20895;51.034;3.742;2022-08-19T13:20:22;5.90;;;2.00;;
34019;SDS011;20895;51.034;3.742;2022-08-19T13:22:47;2.72;;;1.15;;
34019;SDS011;20895;51.034;3.742;2022-08-19T13:25:13;8.43;;;1.50;;
34019;SDS011;20895;51.034;3.742;2022-08-19T13:27:39;8.02;;;2.25;;
34019;SDS011;20895;51.034;3.742;2022-08-19T13:30:06;5.45;;;1.85;;
34019;SDS011;20895;51.034;3.742;2022-08-19T13:32:50;4.25;;;1.70;;
34019;SDS011;20895;51.034;3.742;2022-08-19T13:35:34;7.00;;;1.80;;
34019;SDS011;20895;51.034;3.742;2022-08-19T13:37:59;2.22;;;1.10;;
34019;SDS011;20895;51.034;3.742;2022-08-19T13:40:25;2.63;;;1.80;;
34019;SDS011;20895;51.034;3.742;2022-08-19T13:42:52;4.10;;;1.80;;
34019;SDS011;20895;51.034;3.742;2022-08-19T13:45:19;6.53;;;1.95;;
34019;SDS011;20895;51.034;3.742;2022-08-19T13:47:48;2.95;;;1.17;;
34019;SDS011;20895;51.034;3.742;2022-08-19T13:50:15;6.22;;;1.65;;
34019;SDS011;20895;51.034;3.742;2022-08-19T13:52:42;4.25;;;1.65;;
34019;SDS011;20895;51.034;3.742;2022-08-19T13:55:08;2.67;;;1.35;;
34019;SDS011;20895;51.034;3.742;2022-08-19T13:57:33;3.35;;;2.00;;
34019;SDS011;20895;51.034;3.742;2022-08-19T13:59:59;1.80;;;1.20;;
34019;SDS011;20895;51.034;3.742;2022-08-19T14:02:24;2.85;;;1.30;;
34019;SDS011;20895;51.034;3.742;2022-08-19T14:04:51;3.97;;;1.40;;
34019;SDS011;20895;51.034;3.742;2022-08-19T14:07:16;5.35;;;1.73;;
34019;SDS011;20895;51.034;3.742;2022-08-19T14:09:41;3.05;;;2.05;;
34019;SDS011;20895;51.034;3.742;2022-08-19T14:12:07;6.13;;;2.90;;
34019;SDS011;20895;51.034;3.742;2022-08-19T14:14:36;3.42;;;1.58;;
34019;SDS011;20895;51.034;3.742;2022-08-19T14:17:01;5.25;;;2.30;;
34019;SDS011;20895;51.034;3.742;2022-08-19T14:19:30;15.95;;;2.33;;
34019;SDS011;20895;51.034;3.742;2022-08-19T14:21:55;2.88;;;1.75;;
34019;SDS011;20895;51.034;3.742;2022-08-19T14:24:22;3.90;;;2.05;;
34019;SDS011;20895;51.034;3.742;2022-08-19T14:26:47;4.50;;;2.13;;
34019;SDS011;20895;51.034;3.742;2022-08-19T14:29:13;3.58;;;2.60;;
34019;SDS011;20895;51.034;3.742;2022-08-19T14:31:38;4.90;;;2.00;;
34019;SDS011;20895;51.034;3.742;2022-08-19T14:34:07;4.45;;;2.38;;
34019;SDS011;20895;51.034;3.742;2022-08-19T14:36:32;5.43;;;2.85;;
34019;SDS011;20895;51.034;3.742;2022-08-19T14:38:59;6.25;;;2.50;;
34019;SDS011;20895;51.034;3.742;2022-08-19T14:41:25;6.65;;;2.90;;
34019;SDS011;20895;51.034;3.742;2022-08-19T14:43:52;6.32;;;2.63;;